createdAt,value
2022-12-15T00:00:34.926Z,47.16
2022-12-15T00:03:25.940Z,47.20
2022-12-15T00:06:12.047Z,46.69
2022-12-15T00:08:58.879Z,46.76
2022-12-15T00:11:44.491Z,46.74
2022-12-15T00:14:30.170Z,47.22
2022-12-15T00:17:17.539Z,47.38
2022-12-15T00:20:02.994Z,47.25
2022-12-15T00:22:48.705Z,46.75
2022-12-15T00:25:34.686Z,46.97
2022-12-15T00:28:20.710Z,47.61
2022-12-15T00:31:06.589Z,47.40
2022-12-15T00:33:53.840Z,47.16
2022-12-15T00:36:39.722Z,47.54
2022-12-15T00:39:08.098Z,47.51
2022-12-15T00:41:36.467Z,47.70
2022-12-15T00:44:05.072Z,47.64
2022-12-15T00:46:53.436Z,47.46
2022-12-15T00:49:40.874Z,47.53
2022-12-15T00:52:26.863Z,46.96
2022-12-15T00:55:12.573Z,46.96
2022-12-15T00:57:58.742Z,47.07
2022-12-15T01:00:45.270Z,47.13
2022-12-15T01:03:33.992Z,47.53
2022-12-15T01:06:25.213Z,47.40
2022-12-15T01:09:11.300Z,47.49
2022-12-15T01:11:57.287Z,47.15
2022-12-15T01:14:43.874Z,46.99
2022-12-15T01:17:30.311Z,47.49
2022-12-15T01:20:16.173Z,47.43
2022-12-15T01:22:46.962Z,47.03
2022-12-15T01:25:17.587Z,47.48
2022-12-15T01:27:46.708Z,47.14
2022-12-15T01:30:17.956Z,47.15
2022-12-15T01:32:46.661Z,47.39
2022-12-15T01:35:15.713Z,46.78
2022-12-15T01:37:45.993Z,47.29
2022-12-15T01:40:39.216Z,47.16
2022-12-15T01:43:14.520Z,46.59
2022-12-15T01:46:05.876Z,46.78
2022-12-15T01:48:44.149Z,47.01
2022-12-15T01:51:19.363Z,46.69
2022-12-15T01:54:00.713Z,47.01
2022-12-15T01:56:36.882Z,46.84
2022-12-15T01:59:08.827Z,46.46
2022-12-15T02:01:37.409Z,46.88
2022-12-15T02:04:06.302Z,46.46
2022-12-15T02:06:34.899Z,46.99
2022-12-15T02:09:05.831Z,46.35
2022-12-15T02:12:02.135Z,46.30
2022-12-15T02:14:48.945Z,46.49
2022-12-15T02:17:30.713Z,46.65
2022-12-15T02:20:42.638Z,46.89
2022-12-15T02:23:56.511Z,47.08
2022-12-15T02:27:20.891Z,47.07
2022-12-15T02:30:27.422Z,47.19
2022-12-15T02:33:16.275Z,46.48
2022-12-15T02:35:57.257Z,46.73
2022-12-15T02:38:34.865Z,46.91
2022-12-15T02:41:05.850Z,47.10
2022-12-15T02:43:38.914Z,46.98
2022-12-15T02:46:19.864Z,46.89
2022-12-15T02:49:01.463Z,47.01
2022-12-15T02:51:44.948Z,47.22
2022-12-15T02:54:53.368Z,46.98
2022-12-15T02:57:32.808Z,46.68
2022-12-15T03:00:06.958Z,46.88
2022-12-15T03:02:40.510Z,46.68
2022-12-15T03:05:10.517Z,46.73
2022-12-15T03:07:38.990Z,46.93
2022-12-15T03:10:09.035Z,46.23
2022-12-15T03:12:37.422Z,46.97
2022-12-15T03:15:07.260Z,46.71
2022-12-15T03:17:38.359Z,47.01
2022-12-15T03:20:09.004Z,46.61
2022-12-15T03:22:37.771Z,46.76
2022-12-15T03:25:07.311Z,46.86
2022-12-15T03:27:37.903Z,46.42
2022-12-15T03:30:08.691Z,46.28
2022-12-15T03:32:38.421Z,46.43
2022-12-15T03:35:08.525Z,46.81
2022-12-15T03:37:36.976Z,46.60
2022-12-15T03:40:06.511Z,46.53
2022-12-15T03:42:49.576Z,46.57
2022-12-15T03:45:19.289Z,46.42
2022-12-15T03:47:50.066Z,46.61
2022-12-15T03:50:21.698Z,46.50
2022-12-15T03:52:53.253Z,46.68
2022-12-15T03:55:22.674Z,46.99
2022-12-15T03:57:52.115Z,46.70
2022-12-15T04:00:22.437Z,47.23
2022-12-15T04:02:52.805Z,46.99
2022-12-15T04:05:25.765Z,47.01
2022-12-15T04:07:54.699Z,46.85
2022-12-15T04:10:27.428Z,47.35
2022-12-15T04:13:00.616Z,47.12
2022-12-15T04:15:29.962Z,47.14
2022-12-15T04:17:59.852Z,47.21
2022-12-15T04:20:27.209Z,47.43
2022-12-15T04:22:55.863Z,47.08
2022-12-15T04:25:43.918Z,47.34
2022-12-15T04:28:31.785Z,47.38
2022-12-15T04:31:25.198Z,47.82
2022-12-15T04:34:16.274Z,47.30
2022-12-15T04:37:04.891Z,47.61
2022-12-15T04:39:50.466Z,47.48
2022-12-15T04:42:37.906Z,47.99
2022-12-15T04:45:26.524Z,47.59
2022-12-15T04:48:12.358Z,47.85
2022-12-15T04:50:59.442Z,48.28
2022-12-15T04:53:45.178Z,48.27
2022-12-15T04:56:33.137Z,48.24
2022-12-15T04:59:19.774Z,48.68
2022-12-15T05:02:07.071Z,48.42
2022-12-15T05:04:53.062Z,49.07
2022-12-15T05:07:40.050Z,49.09
2022-12-15T05:10:27.216Z,49.02
2022-12-15T05:13:13.364Z,48.74
2022-12-15T05:15:59.082Z,49.05
2022-12-15T05:18:45.082Z,49.32
2022-12-15T05:21:30.931Z,49.58
2022-12-15T05:24:18.067Z,49.13
2022-12-15T05:27:03.902Z,49.12
2022-12-15T05:29:49.426Z,49.47
2022-12-15T05:32:17.746Z,49.42
2022-12-15T05:34:46.145Z,49.74
2022-12-15T05:37:14.512Z,49.65
2022-12-15T05:39:44.250Z,49.26
2022-12-15T05:42:12.597Z,49.39
2022-12-15T05:44:40.976Z,49.38
2022-12-15T05:47:09.525Z,49.78
2022-12-15T05:49:37.924Z,49.34
2022-12-15T05:52:07.339Z,49.99
2022-12-15T05:54:35.785Z,49.31
2022-12-15T05:57:05.702Z,49.75
2022-12-15T05:59:34.104Z,49.73
2022-12-15T06:02:02.530Z,49.74
2022-12-15T06:04:31.530Z,50.15
2022-12-15T06:06:59.917Z,50.12
2022-12-15T06:09:29.092Z,49.67
2022-12-15T06:11:57.455Z,50.18
2022-12-15T06:14:27.177Z,50.31
2022-12-15T06:16:55.985Z,50.21
2022-12-15T06:19:24.590Z,50.38
2022-12-15T06:21:52.926Z,50.19
2022-12-15T06:24:21.274Z,50.14
2022-12-15T06:26:50.075Z,50.44
2022-12-15T06:29:19.044Z,50.20
2022-12-15T06:31:48.847Z,50.30
2022-12-15T06:34:18.734Z,50.13
2022-12-15T06:36:47.387Z,50.46
2022-12-15T06:39:17.188Z,50.66
2022-12-15T06:41:46.063Z,50.41
2022-12-15T06:44:16.314Z,50.40
2022-12-15T06:46:46.226Z,50.46
2022-12-15T06:49:16.082Z,50.39
2022-12-15T06:51:45.146Z,49.96
2022-12-15T06:54:13.918Z,50.22
2022-12-15T06:56:42.600Z,50.06
2022-12-15T06:59:12.913Z,50.05
2022-12-15T07:01:41.773Z,50.23
2022-12-15T07:04:11.437Z,49.90
2022-12-15T07:06:42.465Z,49.81
2022-12-15T07:09:17.229Z,49.89
2022-12-15T07:11:46.502Z,50.01
2022-12-15T07:14:14.825Z,49.77
2022-12-15T07:16:43.269Z,50.06
2022-12-15T07:19:13.464Z,49.92
2022-12-15T07:21:43.431Z,49.63
2022-12-15T07:24:13.141Z,49.98
2022-12-15T07:26:41.898Z,49.85
2022-12-15T07:29:11.898Z,49.61
2022-12-15T07:31:40.361Z,49.70
2022-12-15T07:34:08.918Z,49.97
2022-12-15T07:36:37.334Z,49.46
2022-12-15T07:39:10.415Z,49.83
2022-12-15T07:41:40.444Z,49.94
2022-12-15T07:44:08.969Z,49.56
2022-12-15T07:46:37.587Z,49.62
2022-12-15T07:49:05.990Z,49.67
2022-12-15T07:51:34.343Z,49.69
2022-12-15T07:54:02.707Z,49.66
2022-12-15T07:56:38.900Z,49.57
2022-12-15T07:59:09.153Z,49.65
2022-12-15T08:01:37.729Z,49.86
2022-12-15T08:04:06.963Z,49.88
2022-12-15T08:06:35.475Z,49.41
2022-12-15T08:09:03.906Z,49.78
2022-12-15T08:11:35.625Z,49.62
2022-12-15T08:14:06.924Z,49.50
2022-12-15T08:16:37.579Z,49.44
2022-12-15T08:19:07.399Z,49.09
2022-12-15T08:21:35.936Z,48.99
2022-12-15T08:24:04.518Z,49.16
2022-12-15T08:26:34.267Z,49.29
2022-12-15T08:29:49.027Z,49.36
2022-12-15T08:31:53.942Z,49.37
2022-12-15T08:34:22.680Z,49.39
2022-12-15T08:36:51.742Z,49.53
2022-12-15T08:39:20.512Z,49.50
2022-12-15T08:41:51.866Z,49.36
2022-12-15T08:44:20.349Z,49.50
2022-12-15T08:46:48.698Z,49.31
2022-12-15T08:49:21.735Z,49.22
2022-12-15T08:51:50.900Z,49.47
2022-12-15T08:54:20.595Z,49.43
2022-12-15T08:56:50.997Z,49.39
2022-12-15T08:59:20.219Z,49.29
2022-12-15T09:01:48.919Z,49.23
2022-12-15T09:04:18.078Z,49.05
2022-12-15T09:06:46.810Z,48.95
2022-12-15T09:09:19.922Z,49.11
2022-12-15T09:11:50.110Z,49.02
2022-12-15T09:14:24.184Z,49.06
2022-12-15T09:16:57.292Z,49.00
2022-12-15T09:19:26.053Z,48.99
2022-12-15T09:21:54.587Z,49.05
2022-12-15T09:24:33.904Z,49.02
2022-12-15T09:27:04.920Z,49.32
2022-12-15T09:29:34.261Z,49.00
2022-12-15T09:32:05.548Z,49.34
2022-12-15T09:34:37.885Z,49.31
2022-12-15T09:37:06.359Z,48.95
2022-12-15T09:39:34.779Z,49.31
2022-12-15T09:42:04.682Z,48.99
2022-12-15T09:44:34.234Z,49.02
2022-12-15T09:47:17.574Z,49.09
2022-12-15T09:49:57.703Z,48.93
2022-12-15T09:52:30.095Z,49.06
2022-12-15T09:54:59.497Z,48.86
2022-12-15T09:57:38.398Z,48.65
2022-12-15T10:00:22.013Z,49.17
2022-12-15T10:03:36.574Z,48.95
2022-12-15T10:06:17.338Z,48.84
2022-12-15T10:08:51.774Z,48.96
2022-12-15T10:11:50.323Z,49.04
2022-12-15T10:14:32.070Z,48.50
2022-12-15T10:17:10.411Z,48.61
2022-12-15T10:19:44.609Z,48.58
2022-12-15T10:22:21.525Z,48.69
2022-12-15T10:28:12.002Z,48.16
2022-12-15T10:30:52.029Z,48.19
2022-12-15T10:33:24.189Z,48.07
2022-12-15T10:35:55.056Z,47.96
2022-12-15T10:38:34.314Z,48.05
2022-12-15T10:41:06.100Z,47.70
2022-12-15T10:43:37.656Z,47.85
2022-12-15T10:46:15.013Z,47.89
2022-12-15T10:51:37.209Z,48.16
2022-12-15T10:54:13.200Z,48.21
2022-12-15T10:56:51.026Z,47.96
2022-12-15T10:59:30.886Z,48.12
2022-12-15T11:02:28.673Z,47.78
2022-12-15T11:04:58.173Z,47.69
2022-12-15T11:07:38.903Z,47.92
2022-12-15T11:10:22.311Z,47.61
2022-12-15T11:13:13.108Z,47.58
2022-12-15T11:15:45.902Z,47.95
2022-12-15T11:18:39.694Z,47.65
2022-12-15T11:21:15.654Z,47.64
2022-12-15T11:23:57.118Z,47.45
2022-12-15T11:26:41.706Z,47.38
2022-12-15T11:29:22.373Z,47.50
2022-12-15T11:31:52.556Z,47.23
2022-12-15T11:34:26.154Z,47.42
2022-12-15T11:37:34.206Z,47.29
2022-12-15T11:40:34.365Z,47.03
2022-12-15T11:43:36.247Z,47.22
2022-12-15T11:46:23.933Z,47.02
2022-12-15T11:49:20.650Z,46.99
2022-12-15T11:51:58.987Z,47.30
2022-12-15T11:54:34.330Z,47.28
2022-12-15T11:57:18.942Z,47.02
2022-12-15T12:00:06.056Z,46.97
2022-12-15T12:02:57.934Z,47.03
2022-12-15T12:05:39.394Z,46.99
2022-12-15T12:08:31.302Z,46.75
2022-12-15T12:11:07.387Z,47.13
2022-12-15T12:13:54.170Z,46.76
2022-12-15T12:16:35.605Z,45.52
2022-12-15T12:19:10.460Z,46.20
2022-12-15T12:21:44.633Z,45.93
2022-12-15T12:24:25.214Z,46.46
2022-12-15T12:27:00.013Z,46.29
2022-12-15T12:29:35.108Z,46.68
2022-12-15T12:32:12.593Z,46.71
2022-12-15T12:35:31.859Z,46.86
2022-12-15T12:37:52.580Z,46.77
2022-12-15T12:40:32.732Z,46.62
2022-12-15T12:43:01.739Z,45.86
2022-12-15T12:45:38.639Z,46.05
2022-12-15T12:48:16.146Z,45.77
2022-12-15T12:50:44.709Z,46.12
2022-12-15T12:53:33.838Z,46.23
2022-12-15T12:56:03.897Z,46.46
2022-12-15T12:58:35.716Z,46.59
2022-12-15T13:01:21.171Z,46.60
2022-12-15T13:04:08.580Z,46.51
2022-12-15T13:07:06.801Z,46.61
2022-12-15T13:09:42.407Z,46.79
2022-12-15T13:12:54.118Z,46.72
2022-12-15T13:15:40.886Z,46.78
2022-12-15T13:18:16.946Z,46.76
2022-12-15T13:20:48.948Z,47.00
2022-12-15T13:23:41.269Z,47.06
2022-12-15T13:26:19.657Z,47.28
2022-12-15T13:28:53.507Z,47.26
2022-12-15T13:31:45.537Z,47.04
2022-12-15T13:34:25.560Z,46.98
2022-12-15T13:37:02.284Z,47.13
2022-12-15T13:39:59.308Z,47.08
2022-12-15T13:42:47.285Z,47.09
2022-12-15T13:45:54.821Z,47.37
2022-12-15T13:48:36.264Z,47.31
2022-12-15T13:51:26.923Z,47.40
2022-12-15T13:54:01.031Z,47.30
2022-12-15T13:56:50.854Z,47.53
2022-12-15T13:59:35.225Z,47.57
2022-12-15T14:02:23.446Z,47.57
2022-12-15T14:05:14.453Z,47.60
2022-12-15T14:07:52.666Z,47.83
2022-12-15T14:10:28.406Z,47.65
2022-12-15T14:12:59.408Z,47.74
2022-12-15T14:15:31.703Z,47.94
2022-12-15T14:18:03.369Z,48.30
2022-12-15T14:20:39.952Z,48.02
2022-12-15T14:23:20.553Z,47.95
2022-12-15T14:25:58.600Z,48.00
2022-12-15T14:28:33.397Z,48.09
2022-12-15T14:31:06.256Z,48.18
2022-12-15T14:33:39.819Z,48.20
2022-12-15T14:36:12.530Z,48.25
2022-12-15T14:38:49.040Z,48.22
2022-12-15T14:41:23.777Z,47.94
2022-12-15T14:46:48.396Z,48.24
2022-12-15T14:49:23.141Z,48.18
2022-12-15T14:51:58.256Z,48.09
2022-12-15T14:54:35.670Z,48.37
2022-12-15T14:57:15.381Z,48.26
2022-12-15T14:59:46.523Z,48.28
2022-12-15T15:02:23.180Z,48.31
2022-12-15T15:03:09.675Z,48.19
2022-12-15T15:03:15.602Z,48.20
2022-12-15T15:05:04.016Z,48.34
2022-12-15T15:07:34.195Z,48.29
2022-12-15T15:10:04.142Z,48.11
2022-12-15T15:12:46.000Z,48.14
2022-12-15T15:15:19.247Z,48.20
2022-12-15T15:17:52.981Z,48.20
2022-12-15T15:20:27.580Z,48.34
2022-12-15T15:23:17.716Z,48.12
2022-12-15T15:25:51.962Z,48.19
2022-12-15T15:28:26.840Z,48.13
2022-12-15T15:30:57.678Z,48.16
2022-12-15T15:33:27.436Z,48.27
2022-12-15T15:36:00.399Z,48.16
2022-12-15T15:38:33.683Z,48.38
2022-12-15T15:41:13.284Z,48.17
2022-12-15T15:43:42.193Z,48.44
2022-12-15T15:46:16.312Z,48.45
2022-12-15T15:48:49.157Z,48.31
2022-12-15T15:51:19.849Z,48.43
2022-12-15T15:53:48.856Z,48.44
2022-12-15T15:56:18.771Z,48.53
2022-12-15T15:58:47.678Z,48.47
2022-12-15T16:01:16.119Z,48.49
2022-12-15T16:03:44.750Z,48.42
2022-12-15T16:06:21.148Z,48.64
2022-12-15T16:08:53.692Z,48.56
2022-12-15T16:11:23.962Z,48.63
2022-12-15T16:13:52.404Z,48.64
2022-12-15T16:16:25.231Z,48.63
2022-12-15T16:18:53.639Z,48.48
2022-12-15T16:21:27.229Z,48.60
2022-12-15T16:23:57.012Z,48.57
2022-12-15T16:26:30.437Z,48.64
2022-12-15T16:28:58.997Z,48.71
2022-12-15T16:31:37.285Z,48.69
2022-12-15T16:34:09.354Z,48.60
2022-12-15T16:36:39.496Z,48.80
2022-12-15T16:39:26.928Z,48.69
2022-12-15T16:41:56.958Z,48.88
2022-12-15T16:44:27.034Z,48.92
2022-12-15T16:46:55.649Z,48.71
2022-12-15T16:49:24.904Z,48.92
2022-12-15T16:51:55.378Z,49.03
2022-12-15T16:54:27.292Z,49.05
2022-12-15T16:56:58.227Z,48.99
2022-12-15T16:59:33.392Z,49.34
2022-12-15T17:02:03.365Z,49.42
2022-12-15T17:04:32.484Z,49.50
2022-12-15T17:07:02.639Z,49.53
2022-12-15T17:09:36.789Z,49.31
2022-12-15T17:12:06.046Z,49.50
2022-12-15T17:14:34.617Z,49.66
2022-12-15T17:17:06.727Z,49.37
2022-12-15T17:19:35.285Z,49.60
2022-12-15T17:22:05.136Z,49.62
2022-12-15T17:24:34.837Z,49.51
2022-12-15T17:27:03.501Z,49.75
2022-12-15T17:29:32.455Z,49.97
2022-12-15T17:32:01.428Z,49.77
2022-12-15T17:34:32.865Z,49.76
2022-12-15T17:37:04.728Z,49.70
2022-12-15T17:39:39.668Z,49.74
2022-12-15T17:42:20.850Z,49.95
2022-12-15T17:44:56.341Z,49.88
2022-12-15T17:47:31.983Z,50.13
2022-12-15T17:50:01.087Z,50.07
2022-12-15T17:52:34.754Z,49.87
2022-12-15T17:55:20.358Z,50.11
2022-12-15T17:57:49.140Z,49.93
2022-12-15T18:00:23.028Z,50.19
2022-12-15T18:02:51.970Z,49.99
2022-12-15T18:05:23.109Z,49.87
2022-12-15T18:07:54.807Z,49.75
2022-12-15T18:10:37.989Z,50.32
2022-12-15T18:13:18.281Z,50.07
2022-12-15T18:15:49.010Z,50.17
2022-12-15T18:18:19.027Z,50.45
2022-12-15T18:20:47.607Z,50.35
2022-12-15T18:23:18.482Z,50.19
2022-12-15T18:26:03.070Z,50.51
2022-12-15T18:28:35.845Z,50.32
2022-12-15T18:31:16.477Z,50.06
2022-12-15T18:33:45.863Z,50.29
2022-12-15T18:36:19.450Z,50.27
2022-12-15T18:38:48.259Z,50.26
2022-12-15T18:41:21.339Z,50.64
2022-12-15T18:43:52.365Z,50.56
2022-12-15T18:46:24.937Z,50.51
2022-12-15T18:48:55.973Z,50.37
2022-12-15T18:51:26.417Z,50.32
2022-12-15T18:53:55.664Z,50.44
2022-12-15T18:56:26.651Z,50.31
2022-12-15T18:58:55.333Z,50.64
2022-12-15T19:01:25.478Z,50.25
2022-12-15T19:03:54.934Z,50.72
2022-12-15T19:06:36.046Z,50.32
2022-12-15T19:09:06.561Z,50.52
2022-12-15T19:11:38.266Z,51.12
2022-12-15T19:14:35.529Z,50.80
2022-12-15T19:17:23.136Z,50.58
2022-12-15T19:20:10.378Z,50.76
2022-12-15T19:22:39.848Z,51.08
2022-12-15T19:25:13.805Z,50.84
2022-12-15T19:27:44.568Z,50.91
2022-12-15T19:30:18.485Z,50.72
2022-12-15T19:32:48.271Z,51.16
2022-12-15T19:35:19.148Z,51.27
2022-12-15T19:37:49.983Z,51.20
2022-12-15T19:40:22.665Z,51.08
2022-12-15T19:42:55.523Z,50.88
2022-12-15T19:45:27.908Z,51.29
2022-12-15T19:47:58.737Z,51.31
2022-12-15T19:50:33.669Z,51.25
2022-12-15T19:53:10.222Z,50.92
2022-12-15T19:55:40.517Z,50.85
2022-12-15T19:58:30.535Z,51.20
2022-12-15T20:01:02.913Z,51.22
2022-12-15T20:03:32.798Z,50.92
2022-12-15T20:06:05.143Z,50.98
2022-12-15T20:08:39.529Z,51.18
2022-12-15T20:11:16.680Z,50.93
2022-12-15T20:13:48.480Z,50.97
2022-12-15T20:16:19.254Z,51.00
2022-12-15T20:18:49.030Z,50.89
2022-12-15T20:21:22.241Z,50.98
2022-12-15T20:23:56.356Z,51.06
2022-12-15T20:26:26.066Z,51.17
2022-12-15T20:28:56.959Z,51.37
2022-12-15T20:31:26.911Z,51.10
2022-12-15T20:33:56.856Z,50.98
2022-12-15T20:36:31.531Z,50.81
2022-12-15T20:39:02.139Z,51.22
2022-12-15T20:41:32.225Z,51.14
2022-12-15T20:44:09.977Z,51.01
2022-12-15T20:46:42.914Z,51.46
2022-12-15T20:49:17.745Z,50.94
2022-12-15T20:51:48.148Z,51.41
2022-12-15T20:54:20.604Z,50.89
2022-12-15T20:56:50.676Z,50.94
2022-12-15T20:59:22.010Z,51.45
2022-12-15T21:01:50.730Z,50.90
2022-12-15T21:04:26.754Z,51.31
2022-12-15T21:06:57.160Z,50.89
2022-12-15T21:09:26.405Z,50.94
2022-12-15T21:11:56.073Z,50.79
2022-12-15T21:14:26.134Z,51.34
2022-12-15T21:16:54.976Z,51.01
2022-12-15T21:19:24.294Z,51.32
2022-12-15T21:21:55.521Z,50.98
2022-12-15T21:24:27.529Z,51.44
2022-12-15T21:26:56.300Z,51.55
2022-12-15T21:29:29.388Z,51.27
2022-12-15T21:31:57.887Z,51.04
2022-12-15T21:34:26.380Z,51.15
2022-12-15T21:36:55.634Z,51.37
2022-12-15T21:39:29.721Z,51.48
2022-12-15T21:42:01.757Z,51.24
2022-12-15T21:44:31.605Z,51.07
2022-12-15T21:47:00.141Z,51.00
2022-12-15T21:49:27.523Z,51.29
2022-12-15T21:51:58.563Z,51.51
2022-12-15T21:54:31.713Z,51.16
2022-12-15T21:57:01.128Z,51.16
2022-12-15T21:59:33.206Z,51.66
2022-12-15T22:02:02.489Z,51.36
2022-12-15T22:04:34.955Z,51.35
2022-12-15T22:07:03.760Z,51.25
2022-12-15T22:09:32.153Z,51.28
2022-12-15T22:12:01.337Z,51.96
2022-12-15T22:14:34.463Z,51.76
2022-12-15T22:17:14.037Z,51.61
2022-12-15T22:19:42.399Z,51.66
2022-12-15T22:22:10.820Z,51.69
2022-12-15T22:24:39.420Z,51.86
2022-12-15T22:27:17.682Z,51.84
2022-12-15T22:29:47.704Z,51.60
2022-12-15T22:32:17.548Z,51.53
2022-12-15T22:34:45.927Z,52.10
2022-12-15T22:37:14.311Z,51.46
2022-12-15T22:39:42.660Z,51.85
2022-12-15T22:42:17.462Z,52.16
2022-12-15T22:44:47.522Z,52.27
2022-12-15T22:47:15.911Z,52.13
2022-12-15T22:49:44.403Z,52.00
2022-12-15T22:52:19.449Z,52.27
2022-12-15T22:54:48.366Z,51.95
2022-12-15T22:57:23.472Z,52.02
2022-12-15T23:00:00.701Z,52.54
2022-12-15T23:02:32.277Z,52.11
2022-12-15T23:05:00.729Z,52.28
2022-12-15T23:07:29.762Z,52.15
2022-12-15T23:10:12.030Z,52.21
2022-12-15T23:12:40.484Z,52.63
2022-12-15T23:15:29.563Z,52.15
2022-12-15T23:17:57.946Z,52.00
2022-12-15T23:20:26.899Z,52.22
2022-12-15T23:22:55.221Z,52.70
2022-12-15T23:25:23.712Z,52.39
2022-12-15T23:27:52.231Z,52.72
2022-12-15T23:30:22.135Z,52.34
2022-12-15T23:32:50.495Z,53.03
2022-12-15T23:35:23.576Z,52.91
2022-12-15T23:37:52.093Z,53.20
2022-12-15T23:40:22.368Z,53.23
2022-12-15T23:42:51.241Z,53.05
2022-12-15T23:45:22.118Z,52.80
2022-12-15T23:47:50.486Z,52.94
2022-12-15T23:50:19.545Z,52.82
2022-12-15T23:52:51.357Z,52.97
2022-12-15T23:55:20.477Z,53.68
2022-12-15T23:57:48.844Z,53.36
